createdAt,value
2022-10-01T00:01:04.111Z,99905.72
2022-10-01T00:03:40.058Z,99917.13
2022-10-01T00:06:10.769Z,99921.53
2022-10-01T00:08:40.047Z,99918.63
2022-10-01T00:11:11.225Z,99918.19
2022-10-01T00:13:39.384Z,99921.19
2022-10-01T00:16:08.043Z,99919.34
2022-10-01T00:18:36.610Z,99917.28
2022-10-01T00:21:08.711Z,99914.97
2022-10-01T00:23:36.618Z,99917.84
2022-10-01T00:26:14.180Z,99916.00
2022-10-01T00:28:42.769Z,99916.53
2022-10-01T00:31:10.613Z,99911.34
2022-10-01T00:33:38.382Z,99923.94
2022-10-01T00:36:08.053Z,99921.06
2022-10-01T00:38:35.629Z,99920.91
2022-10-01T00:41:03.988Z,99933.31
2022-10-01T00:43:35.296Z,99929.97
2022-10-01T00:46:06.852Z,99925.75
2022-10-01T00:48:40.110Z,99925.78
2022-10-01T00:51:07.582Z,99927.28
2022-10-01T00:53:35.105Z,99929.78
2022-10-01T00:56:02.788Z,99936.97
2022-10-01T00:58:30.055Z,99931.59
2022-10-01T01:00:58.855Z,99935.78
2022-10-01T01:03:26.965Z,99927.41
2022-10-01T01:05:54.350Z,99936.97
2022-10-01T01:08:21.596Z,99926.44
2022-10-01T01:10:57.890Z,99924.94
2022-10-01T01:13:33.131Z,99929.44
2022-10-01T01:16:09.976Z,99921.88
2022-10-01T01:18:45.322Z,99911.75
2022-10-01T01:21:21.615Z,99909.09
2022-10-01T01:24:15.685Z,99913.66
2022-10-01T01:26:55.269Z,99919.00
2022-10-01T01:29:29.434Z,99915.44
2022-10-01T01:32:02.920Z,99913.09
2022-10-01T01:34:33.401Z,99910.31
2022-10-01T01:37:06.405Z,99923.03
2022-10-01T01:39:35.087Z,99916.44
2022-10-01T01:42:07.128Z,99910.59
2022-10-01T01:44:39.782Z,99907.75
2022-10-01T01:47:09.205Z,99902.78
2022-10-01T01:49:37.491Z,99905.25
2022-10-01T01:52:08.807Z,99901.41
2022-10-01T01:54:36.959Z,99892.44
2022-10-01T01:57:04.645Z,99887.25
2022-10-01T01:59:33.209Z,99886.91
2022-10-01T02:02:02.504Z,99882.56
2022-10-01T02:04:34.553Z,99884.19
2022-10-01T02:07:32.565Z,99886.72
2022-10-01T02:10:11.570Z,99885.91
2022-10-01T02:12:51.528Z,99881.63
2022-10-01T02:15:25.758Z,99877.28
2022-10-01T02:18:03.604Z,99873.16
2022-10-01T02:20:36.820Z,99873.38
2022-10-01T02:23:08.074Z,99863.47
2022-10-01T02:25:40.059Z,99861.63
2022-10-01T02:28:12.016Z,99858.38
2022-10-01T02:30:41.167Z,99857.13
2022-10-01T02:33:13.853Z,99855.44
2022-10-01T02:35:44.262Z,99857.47
2022-10-01T02:38:15.644Z,99858.28
2022-10-01T02:40:45.054Z,99862.75
2022-10-01T02:43:18.653Z,99855.28
2022-10-01T02:45:50.707Z,99858.31
2022-10-01T02:48:19.772Z,99862.19
2022-10-01T02:50:51.528Z,99856.75
2022-10-01T02:53:26.247Z,99855.00
2022-10-01T02:55:55.342Z,99857.44
2022-10-01T02:58:23.538Z,99858.91
2022-10-01T03:00:50.847Z,99857.53
2022-10-01T03:03:19.656Z,99858.47
2022-10-01T03:05:47.632Z,99852.19
2022-10-01T03:08:14.867Z,99852.66
2022-10-01T03:10:46.015Z,99859.75
2022-10-01T03:13:14.611Z,99854.38
2022-10-01T03:15:41.944Z,99866.88
2022-10-01T03:18:09.252Z,99862.38
2022-10-01T03:20:38.335Z,99863.06
2022-10-01T03:23:05.607Z,99858.88
2022-10-01T03:25:32.846Z,99855.28
2022-10-01T03:28:00.897Z,99849.13
2022-10-01T03:30:28.289Z,99844.78
2022-10-01T03:32:55.524Z,99842.53
2022-10-01T03:35:23.107Z,99836.78
2022-10-01T03:37:51.791Z,99837.66
2022-10-01T03:40:18.927Z,99840.53
2022-10-01T03:42:46.689Z,99841.22
2022-10-01T03:45:14.166Z,99838.81
2022-10-01T03:47:41.488Z,99835.91
2022-10-01T03:50:09.605Z,99829.94
2022-10-01T03:52:36.853Z,99844.66
2022-10-01T03:55:06.530Z,99834.94
2022-10-01T03:57:34.450Z,99836.97
2022-10-01T04:00:02.029Z,99831.22
2022-10-01T04:02:29.427Z,99825.47
2022-10-01T04:04:57.113Z,99823.41
2022-10-01T04:07:24.295Z,99825.47
2022-10-01T04:09:51.492Z,99819.75
2022-10-01T04:12:20.510Z,99819.13
2022-10-01T04:14:47.732Z,99810.34
2022-10-01T04:17:15.094Z,99810.34
2022-10-01T04:19:42.565Z,99813.09
2022-10-01T04:22:09.802Z,99816.91
2022-10-01T04:24:37.183Z,99815.44
2022-10-01T04:27:05.012Z,99810.03
2022-10-01T04:29:38.027Z,99813.53
2022-10-01T04:32:07.879Z,99820.81
2022-10-01T04:34:35.409Z,99817.72
2022-10-01T04:37:02.585Z,99825.41
2022-10-01T04:39:30.446Z,99823.91
2022-10-01T04:41:57.723Z,99825.09
2022-10-01T04:44:24.875Z,99827.09
2022-10-01T04:46:53.956Z,99820.09
2022-10-01T04:49:21.353Z,99820.91
2022-10-01T04:51:49.043Z,99824.44
2022-10-01T04:54:16.267Z,99814.59
2022-10-01T04:56:43.455Z,99807.53
2022-10-01T04:59:11.113Z,99804.22
2022-10-01T05:01:39.057Z,99812.44
2022-10-01T05:04:08.236Z,99813.19
2022-10-01T05:06:35.854Z,99811.28
2022-10-01T05:09:03.524Z,99810.50
2022-10-01T05:11:31.064Z,99811.41
2022-10-01T05:13:59.088Z,99814.22
2022-10-01T05:16:27.471Z,99811.09
2022-10-01T05:18:54.747Z,99809.31
2022-10-01T05:21:23.653Z,99800.88
2022-10-01T05:23:53.940Z,99811.50
2022-10-01T05:26:21.629Z,99813.03
2022-10-01T05:28:49.407Z,99803.81
2022-10-01T05:31:19.091Z,99810.06
2022-10-01T05:33:46.774Z,99809.06
2022-10-01T05:36:14.356Z,99806.09
2022-10-01T05:38:43.170Z,99809.13
2022-10-01T05:41:10.438Z,99809.19
2022-10-01T05:43:37.995Z,99810.06
2022-10-01T05:46:05.863Z,99804.75
2022-10-01T05:48:33.283Z,99814.44
2022-10-01T05:51:01.296Z,99806.03
2022-10-01T05:53:28.526Z,99810.81
2022-10-01T05:55:59.053Z,99801.63
2022-10-01T05:58:27.083Z,99798.28
2022-10-01T06:00:55.457Z,99804.78
2022-10-01T06:03:22.819Z,99806.97
2022-10-01T06:05:50.994Z,99798.41
2022-10-01T06:08:18.344Z,99799.75
2022-10-01T06:10:45.618Z,99802.53
2022-10-01T06:13:14.788Z,99806.44
2022-10-01T06:15:42.062Z,99797.66
2022-10-01T06:18:11.595Z,99801.94
2022-10-01T06:20:40.814Z,99795.41
2022-10-01T06:23:12.900Z,99791.22
2022-10-01T06:25:41.781Z,99793.25
2022-10-01T06:28:11.402Z,99793.19
2022-10-01T06:30:40.428Z,99798.50
2022-10-01T06:33:11.019Z,99790.97
2022-10-01T06:35:41.859Z,99799.00
2022-10-01T06:38:09.936Z,99791.13
2022-10-01T06:40:37.862Z,99789.66
2022-10-01T06:43:05.810Z,99784.09
2022-10-01T06:45:37.050Z,99779.38
2022-10-01T06:48:06.320Z,99779.72
2022-10-01T06:50:34.970Z,99772.88
2022-10-01T06:53:02.583Z,99771.91
2022-10-01T06:55:32.485Z,99770.41
2022-10-01T06:58:01.542Z,99774.41
2022-10-01T07:00:30.810Z,99771.88
2022-10-01T07:02:58.749Z,99771.28
2022-10-01T07:05:29.705Z,99769.72
2022-10-01T07:07:57.008Z,99775.66
2022-10-01T07:10:24.467Z,99771.13
2022-10-01T07:12:52.272Z,99763.06
2022-10-01T07:15:21.411Z,99764.63
2022-10-01T07:17:50.402Z,99764.00
2022-10-01T07:20:20.124Z,99759.25
2022-10-01T07:22:50.171Z,99756.56
2022-10-01T07:25:17.586Z,99751.41
2022-10-01T07:27:45.253Z,99739.63
2022-10-01T07:30:12.784Z,99748.00
2022-10-01T07:32:43.150Z,99738.97
2022-10-01T07:35:10.957Z,99743.56
2022-10-01T07:37:38.148Z,99738.56
2022-10-01T07:40:08.365Z,99743.59
2022-10-01T07:42:36.075Z,99747.16
2022-10-01T07:45:03.537Z,99738.53
2022-10-01T07:47:34.078Z,99738.09
2022-10-01T07:50:02.018Z,99735.81
2022-10-01T07:52:29.640Z,99731.44
2022-10-01T07:54:57.661Z,99745.59
2022-10-01T07:57:27.682Z,99731.84
2022-10-01T07:59:56.166Z,99744.56
2022-10-01T08:02:23.621Z,99741.41
2022-10-01T08:04:58.082Z,99735.38
2022-10-01T08:07:25.383Z,99733.44
2022-10-01T08:10:03.606Z,99736.13
2022-10-01T08:12:46.748Z,99733.06
2022-10-01T08:15:19.405Z,99723.69
2022-10-01T08:17:46.927Z,99720.16
2022-10-01T08:20:27.042Z,99718.66
2022-10-01T08:23:13.003Z,99704.19
2022-10-01T08:25:44.529Z,99707.19
2022-10-01T08:28:14.327Z,99705.69
2022-10-01T08:30:59.186Z,99694.41
2022-10-01T08:33:45.467Z,99690.47
2022-10-01T08:36:15.367Z,99687.88
2022-10-01T08:38:45.711Z,99689.22
2022-10-01T08:41:33.435Z,99683.09
2022-10-01T08:44:18.873Z,99680.69
2022-10-01T08:46:47.750Z,99682.66
2022-10-01T08:49:21.200Z,99671.69
2022-10-01T08:51:54.530Z,99664.03
2022-10-01T08:54:30.957Z,99661.03
2022-10-01T08:57:01.305Z,99652.59
2022-10-01T08:59:38.441Z,99657.84
2022-10-01T09:02:19.444Z,99659.44
2022-10-01T09:04:49.179Z,99650.97
2022-10-01T09:07:30.511Z,99656.22
2022-10-01T09:10:16.729Z,99649.09
2022-10-01T09:12:58.906Z,99649.69
2022-10-01T09:15:34.379Z,99643.56
2022-10-01T09:18:14.939Z,99640.03
2022-10-01T09:20:47.755Z,99636.75
2022-10-01T09:23:22.589Z,99630.28
2022-10-01T09:25:50.842Z,99637.09
2022-10-01T09:28:21.633Z,99635.41
2022-10-01T09:30:56.787Z,99629.59
2022-10-01T09:33:29.768Z,99625.94
2022-10-01T09:36:05.880Z,99618.47
2022-10-01T09:38:38.840Z,99628.22
2022-10-01T09:41:08.497Z,99613.75
2022-10-01T09:43:39.808Z,99612.59
2022-10-01T09:46:12.374Z,99608.81
2022-10-01T09:48:48.002Z,99594.56
2022-10-01T09:51:19.304Z,99597.00
2022-10-01T09:53:54.980Z,99599.38
2022-10-01T09:56:28.851Z,99591.84
2022-10-01T09:59:01.755Z,99596.53
2022-10-01T10:01:42.157Z,99585.13
2022-10-01T10:04:10.374Z,99593.50
2022-10-01T10:06:38.921Z,99589.59
2022-10-01T10:09:16.457Z,99588.38
2022-10-01T10:11:45.221Z,99588.91
2022-10-01T10:14:17.676Z,99589.53
2022-10-01T10:16:48.877Z,99583.53
2022-10-01T10:19:21.713Z,99577.09
2022-10-01T10:21:51.556Z,99578.56
2022-10-01T10:24:25.719Z,99576.78
2022-10-01T10:26:59.091Z,99570.81
2022-10-01T10:29:28.444Z,99557.16
2022-10-01T10:31:59.040Z,99553.16
2022-10-01T10:34:32.956Z,99552.53
2022-10-01T10:37:03.411Z,99547.34
2022-10-01T10:39:35.058Z,99546.84
2022-10-01T10:42:03.107Z,99537.03
2022-10-01T10:44:33.071Z,99526.06
2022-10-01T10:47:05.271Z,99534.56
2022-10-01T10:49:38.600Z,99527.81
2022-10-01T10:52:19.560Z,99514.34
2022-10-01T10:54:48.928Z,99507.34
2022-10-01T10:57:20.179Z,99522.44
2022-10-01T10:59:56.484Z,99511.09
2022-10-01T11:02:27.024Z,99503.44
2022-10-01T11:04:55.614Z,99506.03
2022-10-01T11:07:24.911Z,99495.03
2022-10-01T11:10:08.386Z,99501.91
2022-10-01T11:12:49.360Z,99505.72
2022-10-01T11:15:35.893Z,99498.88
2022-10-01T11:18:25.564Z,99495.75
2022-10-01T11:21:04.777Z,99500.91
2022-10-01T11:23:47.868Z,99495.81
2022-10-01T11:26:24.287Z,99494.81
2022-10-01T11:29:05.961Z,99490.41
2022-10-01T11:31:39.290Z,99488.03
2022-10-01T11:34:37.294Z,99489.56
2022-10-01T11:37:11.773Z,99493.81
2022-10-01T11:39:42.144Z,99492.00
2022-10-01T11:42:13.428Z,99479.19
2022-10-01T11:44:45.374Z,99476.25
2022-10-01T11:47:17.333Z,99488.03
2022-10-01T11:49:54.254Z,99474.94
2022-10-01T11:52:31.902Z,99472.94
2022-10-01T11:55:07.001Z,99473.94
2022-10-01T11:57:34.362Z,99471.66
2022-10-01T12:00:07.722Z,99470.75
2022-10-01T12:02:46.134Z,99465.00
2022-10-01T12:05:19.268Z,99457.03
2022-10-01T12:07:53.570Z,99464.31
2022-10-01T12:10:35.182Z,99448.13
2022-10-01T12:13:08.942Z,99455.78
2022-10-01T12:15:43.710Z,99450.19
2022-10-01T12:18:18.502Z,99449.16
2022-10-01T12:20:50.638Z,99449.63
2022-10-01T12:23:22.154Z,99444.44
2022-10-01T12:26:01.017Z,99437.84
2022-10-01T12:28:33.751Z,99434.78
2022-10-01T12:31:08.433Z,99432.09
2022-10-01T12:34:00.567Z,99427.13
2022-10-01T12:36:40.598Z,99418.03
2022-10-01T12:39:24.338Z,99413.22
2022-10-01T12:42:05.590Z,99410.13
2022-10-01T12:44:56.264Z,99416.03
2022-10-01T12:47:35.997Z,99405.72
2022-10-01T12:50:17.595Z,99413.22
2022-10-01T12:52:57.988Z,99411.53
2022-10-01T12:55:45.649Z,99411.13
2022-10-01T12:58:24.761Z,99413.59
2022-10-01T13:01:00.453Z,99406.41
2022-10-01T13:03:49.107Z,99395.56
2022-10-01T13:06:32.942Z,99402.25
2022-10-01T13:09:15.369Z,99395.19
2022-10-01T13:12:16.772Z,99402.50
2022-10-01T13:14:46.345Z,99383.97
2022-10-01T13:17:21.537Z,99399.34
2022-10-01T13:19:58.534Z,99377.44
2022-10-01T13:22:35.211Z,99381.91
2022-10-01T13:25:21.785Z,99376.03
2022-10-01T13:27:58.990Z,99384.16
2022-10-01T13:30:33.401Z,99370.22
2022-10-01T13:33:01.351Z,99375.91
2022-10-01T13:35:35.738Z,99377.53
2022-10-01T13:38:15.120Z,99372.94
2022-10-01T13:40:45.178Z,99363.31
2022-10-01T13:43:18.286Z,99370.69
2022-10-01T13:45:47.303Z,99361.13
2022-10-01T13:48:19.397Z,99361.59
2022-10-01T13:50:57.273Z,99356.19
2022-10-01T13:53:26.327Z,99355.97
2022-10-01T13:55:56.240Z,99362.06
2022-10-01T13:58:32.090Z,99356.47
2022-10-01T14:01:02.333Z,99351.41
2022-10-01T14:03:42.308Z,99355.06
2022-10-01T14:06:17.499Z,99351.19
2022-10-01T14:08:51.108Z,99348.88
2022-10-01T14:11:25.028Z,99355.94
2022-10-01T14:13:53.133Z,99356.00
2022-10-01T14:16:21.059Z,99350.28
2022-10-01T14:18:50.014Z,99346.44
2022-10-01T14:21:35.272Z,99351.59
2022-10-01T14:24:16.826Z,99350.09
2022-10-01T14:26:52.050Z,99358.91
2022-10-01T14:29:33.837Z,99356.94
2022-10-01T14:32:12.545Z,99359.03
2022-10-01T14:34:52.784Z,99371.44
2022-10-01T14:37:21.076Z,99377.16
2022-10-01T14:40:01.577Z,99379.34
2022-10-01T14:42:30.301Z,99386.53
2022-10-01T14:44:57.792Z,99391.84
2022-10-01T14:47:26.315Z,99398.91
2022-10-01T14:49:54.868Z,99393.69
2022-10-01T14:52:25.052Z,99396.03
2022-10-01T14:54:59.453Z,99398.75
2022-10-01T14:57:33.606Z,99394.50
2022-10-01T15:00:04.552Z,99396.19
2022-10-01T15:02:32.666Z,99389.44
2022-10-01T15:05:00.185Z,99395.28
2022-10-01T15:07:34.890Z,99391.97
2022-10-01T15:10:06.965Z,99382.09
2022-10-01T15:12:43.787Z,99379.56
2022-10-01T15:15:22.481Z,99380.03
2022-10-01T15:17:50.466Z,99372.53
2022-10-01T15:20:18.522Z,99375.09
2022-10-01T15:22:49.323Z,99377.13
2022-10-01T15:25:21.798Z,99370.88
2022-10-01T15:27:51.702Z,99372.28
2022-10-01T15:30:19.154Z,99371.72
2022-10-01T15:32:48.481Z,99370.06
2022-10-01T15:35:22.014Z,99370.13
2022-10-01T15:37:50.761Z,99366.03
2022-10-01T15:40:27.921Z,99366.84
2022-10-01T15:43:24.237Z,99363.91
2022-10-01T15:46:17.476Z,99357.69
2022-10-01T15:48:45.720Z,99356.91
2022-10-01T15:51:19.918Z,99352.28
2022-10-01T15:53:47.429Z,99344.19
2022-10-01T15:56:20.785Z,99343.78
2022-10-01T15:58:54.723Z,99342.50
2022-10-01T16:01:25.330Z,99350.19
2022-10-01T16:03:56.100Z,99341.69
2022-10-01T16:06:27.469Z,99343.56
2022-10-01T16:09:01.824Z,99345.88
2022-10-01T16:11:30.511Z,99344.19
2022-10-01T16:14:28.377Z,99337.75
2022-10-01T16:17:26.219Z,99342.31
2022-10-01T16:19:53.749Z,99337.94
2022-10-01T16:22:25.280Z,99335.22
2022-10-01T16:24:54.090Z,99331.28
2022-10-01T16:27:23.686Z,99336.25
2022-10-01T16:29:55.347Z,99340.25
2022-10-01T16:32:23.194Z,99335.47
2022-10-01T16:34:50.747Z,99337.88
2022-10-01T16:37:18.671Z,99339.97
2022-10-01T16:39:46.501Z,99341.25
2022-10-01T16:42:24.256Z,99342.09
2022-10-01T16:44:53.672Z,99328.00
2022-10-01T16:47:20.945Z,99330.91
2022-10-01T16:49:50.316Z,99336.72
2022-10-01T16:52:18.270Z,99338.78
2022-10-01T16:54:45.958Z,99339.88
2022-10-01T16:57:13.535Z,99337.19
2022-10-01T16:59:41.373Z,99341.53
2022-10-01T17:02:12.742Z,99346.31
2022-10-01T17:04:40.576Z,99349.84
2022-10-01T17:07:08.275Z,99340.09
2022-10-01T17:09:35.688Z,99348.81
2022-10-01T17:12:03.105Z,99344.44
2022-10-01T17:14:30.951Z,99350.84
2022-10-01T17:16:58.416Z,99346.47
2022-10-01T17:19:27.326Z,99350.84
2022-10-01T17:21:55.193Z,99352.28
2022-10-01T17:24:22.394Z,99345.00
2022-10-01T17:26:49.737Z,99345.22
2022-10-01T17:29:17.689Z,99354.38
2022-10-01T17:31:45.094Z,99351.06
2022-10-01T17:34:12.677Z,99352.91
2022-10-01T17:36:41.895Z,99347.50
2022-10-01T17:39:09.392Z,99359.72
2022-10-01T17:41:36.726Z,99354.31
2022-10-01T17:44:04.451Z,99360.97
2022-10-01T17:46:31.970Z,99362.41
2022-10-01T17:48:59.424Z,99359.69
2022-10-01T17:51:27.224Z,99360.25
2022-10-01T17:53:56.085Z,99360.44
2022-10-01T17:56:23.426Z,99371.91
2022-10-01T17:58:53.254Z,99365.94
2022-10-01T18:01:22.524Z,99364.94
2022-10-01T18:03:53.543Z,99381.72
2022-10-01T18:06:21.373Z,99381.28
2022-10-01T18:08:55.457Z,99386.44
2022-10-01T18:11:26.756Z,99384.97
2022-10-01T18:13:54.126Z,99394.09
2022-10-01T18:16:22.193Z,99390.53
2022-10-01T18:21:42.319Z,99394.25
2022-10-01T18:24:09.910Z,99388.50
2022-10-01T18:26:39.059Z,99386.22
2022-10-01T18:29:06.748Z,99387.09
2022-10-01T18:31:37.455Z,99389.53
2022-10-01T18:34:15.440Z,99388.50
2022-10-01T18:36:52.135Z,99387.84
2022-10-01T18:39:28.116Z,99383.94
2022-10-01T18:41:58.526Z,99386.63
2022-10-01T18:44:26.215Z,99391.00
2022-10-01T18:47:12.865Z,99385.03
2022-10-01T18:50:07.443Z,99387.56
2022-10-01T18:52:51.125Z,99383.59
2022-10-01T18:55:58.319Z,99383.16
2022-10-01T18:58:59.437Z,99380.28
2022-10-01T19:01:36.269Z,99384.66
2022-10-01T19:04:21.848Z,99387.75
2022-10-01T19:07:02.072Z,99385.84
2022-10-01T19:09:41.440Z,99386.28
2022-10-01T19:12:29.380Z,99391.28
2022-10-01T19:15:07.305Z,99384.84
2022-10-01T19:17:47.895Z,99389.41
2022-10-01T19:20:24.352Z,99394.75
2022-10-01T19:23:08.849Z,99398.47
2022-10-01T19:25:45.795Z,99391.66
2022-10-01T19:28:31.803Z,99394.75
2022-10-01T19:31:11.512Z,99403.50
2022-10-01T19:33:44.999Z,99405.16
2022-10-01T19:36:20.679Z,99408.47
2022-10-01T19:38:50.282Z,99404.34
2022-10-01T19:41:28.316Z,99399.78
2022-10-01T19:44:02.204Z,99414.56
2022-10-01T19:46:35.311Z,99402.53
2022-10-01T19:49:12.121Z,99410.78
2022-10-01T19:51:44.538Z,99414.91
2022-10-01T19:54:16.172Z,99410.78
2022-10-01T19:56:45.707Z,99412.66
2022-10-01T19:59:15.869Z,99413.69
2022-10-01T20:01:52.155Z,99417.19
2022-10-01T20:04:30.770Z,99415.50
2022-10-01T20:07:04.984Z,99415.09
2022-10-01T20:09:44.577Z,99407.00
2022-10-01T20:12:26.996Z,99404.09
2022-10-01T20:15:03.492Z,99413.81
2022-10-01T20:17:40.263Z,99410.94
2022-10-01T20:20:16.251Z,99416.13
2022-10-01T20:22:56.306Z,99417.56
2022-10-01T20:25:31.159Z,99420.72
2022-10-01T20:28:08.310Z,99428.72
2022-10-01T20:30:44.410Z,99419.22
2022-10-01T20:33:21.272Z,99424.44
2022-10-01T20:35:59.628Z,99425.66
2022-10-01T20:38:32.836Z,99423.34
2022-10-01T20:41:05.789Z,99426.94
2022-10-01T20:43:37.065Z,99440.34
2022-10-01T20:46:11.601Z,99432.50
2022-10-01T20:48:43.922Z,99429.38
2022-10-01T20:51:16.201Z,99436.66
2022-10-01T20:53:50.706Z,99441.22
2022-10-01T20:56:23.257Z,99439.53
2022-10-01T20:58:56.090Z,99442.03
2022-10-01T21:01:27.246Z,99445.06
2022-10-01T21:04:01.338Z,99442.31
2022-10-01T21:06:34.885Z,99442.47
2022-10-01T21:09:09.961Z,99447.91
2022-10-01T21:11:43.361Z,99446.00
2022-10-01T21:14:16.556Z,99449.34
2022-10-01T21:17:04.906Z,99457.25
2022-10-01T21:19:46.060Z,99455.16
2022-10-01T21:22:26.624Z,99458.38
2022-10-01T21:25:02.143Z,99466.81
2022-10-01T21:27:48.010Z,99470.63
2022-10-01T21:30:17.241Z,99469.16
2022-10-01T21:33:10.595Z,99464.41
2022-10-01T21:35:48.739Z,99470.97
2022-10-01T21:38:30.567Z,99475.03
2022-10-01T21:41:28.770Z,99477.50
2022-10-01T21:44:18.793Z,99476.47
2022-10-01T21:46:54.364Z,99476.72
2022-10-01T21:49:31.859Z,99480.88
2022-10-01T21:52:10.474Z,99479.22
2022-10-01T21:55:05.899Z,99486.69
2022-10-01T21:57:47.185Z,99486.69
2022-10-01T22:00:18.122Z,99491.03
2022-10-01T22:02:57.214Z,99488.56
2022-10-01T22:05:35.060Z,99493.31
2022-10-01T22:08:17.840Z,99502.66
2022-10-01T22:10:48.578Z,99500.16
2022-10-01T22:13:19.813Z,99508.66
2022-10-01T22:15:51.352Z,99512.81
2022-10-01T22:18:28.236Z,99508.69
2022-10-01T22:20:59.298Z,99516.00
2022-10-01T22:23:32.117Z,99513.06
2022-10-01T22:26:03.570Z,99521.97
2022-10-01T22:28:36.442Z,99531.34
2022-10-01T22:31:09.104Z,99528.69
2022-10-01T22:33:41.948Z,99529.31
2022-10-01T22:36:15.815Z,99532.41
2022-10-01T22:38:49.550Z,99538.41
2022-10-01T22:41:27.373Z,99540.06
2022-10-01T22:43:55.001Z,99544.59
2022-10-01T22:46:50.234Z,99545.88
2022-10-01T22:49:29.808Z,99542.53
2022-10-01T22:52:09.743Z,99550.78
2022-10-01T22:54:53.481Z,99550.56
2022-10-01T22:57:35.423Z,99556.16
2022-10-01T23:00:05.834Z,99558.41
2022-10-01T23:02:38.953Z,99560.94
2022-10-01T23:05:15.767Z,99560.59
2022-10-01T23:07:56.570Z,99566.41
2022-10-01T23:10:32.521Z,99571.53
2022-10-01T23:13:12.291Z,99576.31
2022-10-01T23:15:45.657Z,99580.47
2022-10-01T23:18:24.868Z,99589.38
2022-10-01T23:21:16.618Z,99597.25
2022-10-01T23:23:55.617Z,99593.94
2022-10-01T23:26:35.035Z,99602.03
2022-10-01T23:29:17.889Z,99599.34
2022-10-01T23:31:54.125Z,99606.78
2022-10-01T23:34:29.646Z,99614.41
2022-10-01T23:37:12.625Z,99616.72
2022-10-01T23:39:48.033Z,99619.59
2022-10-01T23:42:27.601Z,99628.78
2022-10-01T23:45:04.977Z,99634.03
2022-10-01T23:47:40.027Z,99635.44
2022-10-01T23:50:17.296Z,99636.53
2022-10-01T23:52:51.507Z,99637.69
2022-10-01T23:55:26.161Z,99639.50
2022-10-01T23:58:03.150Z,99645.38
